Time;durP1;ratioP1;P1;durP2;ratioP2;P2;SDS_P1;SDS_P2;PMS_P1;PMS_P2;Temp;Humidity;BMP_temperature;BMP_pressure;BME280_temperature;BME280_humidity;BME280_pressure;Samples;Min_cycle;Max_cycle;Signal;HPM_P1;HPM_P2
2023/11/15 00:02:03;;;;;;;0.70;0.70;;;-2.00;99.90;;;;;;1819190;78;25191;-87
2023/11/15 00:04:52;;;;;;;0.70;0.70;;;-2.10;99.90;;;;;;1846088;76;25815;-87
2023/11/15 00:07:41;;;;;;;0.67;0.67;;;-2.10;99.90;;;;;;1799730;78;25292;-87
2023/11/15 00:13:15;;;;;;;0.77;0.77;;;-2.10;99.90;;;;;;1959230;72;27495;-88
2023/11/15 00:16:04;;;;;;;0.97;0.53;;;-2.00;99.90;;;;;;1915029;73;25231;-89
2023/11/15 00:18:53;;;;;;;0.47;0.47;;;-2.10;99.90;;;;;;1935286;73;25157;-88
2023/11/15 00:21:42;;;;;;;0.70;0.70;;;-2.10;99.90;;;;;;1926383;73;25166;-88
2023/11/15 00:24:31;;;;;;;0.90;0.90;;;-2.10;99.90;;;;;;1926161;73;25172;-88
2023/11/15 00:27:20;;;;;;;0.80;0.67;;;-2.10;99.90;;;;;;1923233;73;25826;-89
2023/11/15 00:30:12;;;;;;;0.60;0.60;;;-2.00;99.90;;;;;;1921303;73;25651;-88
2023/11/15 00:33:01;;;;;;;0.60;0.60;;;-2.00;99.90;;;;;;1927120;73;25247;-87
2023/11/15 00:35:50;;;;;;;0.60;0.60;;;-2.00;99.90;;;;;;1927563;73;25236;-88
2023/11/15 00:38:39;;;;;;;0.63;0.63;;;-2.00;99.90;;;;;;1928267;73;25236;-87
2023/11/15 00:41:29;;;;;;;0.40;0.40;;;-2.00;99.90;;;;;;1936041;73;25729;-88
2023/11/15 00:44:18;;;;;;;0.60;0.60;;;-2.00;99.90;;;;;;1899335;74;25749;-88
2023/11/15 00:47:06;;;;;;;0.53;0.53;;;-2.10;99.90;;;;;;1894948;75;25280;-88
2023/11/15 00:52:46;;;;;;;0.60;0.60;;;-2.20;99.90;;;;;;1962788;72;27601;-89
2023/11/15 00:58:29;;;;;;;0.60;0.60;;;-2.10;99.90;;;;;;1948448;72;27569;-89
2023/11/15 01:04:11;;;;;;;2.90;0.50;;;-2.00;99.90;;;;;;1961929;72;26971;-89
2023/11/15 01:07:01;;;;;;;0.60;0.60;;;-2.10;99.90;;;;;;1878658;76;25239;-89
2023/11/15 01:09:50;;;;;;;0.43;0.43;;;-2.10;99.90;;;;;;1883457;75;25156;-89
2023/11/15 01:12:39;;;;;;;0.60;0.60;;;-2.10;99.90;;;;;;1887773;75;25293;-89
2023/11/15 01:15:27;;;;;;;0.50;0.50;;;-2.20;99.90;;;;;;1876515;75;25249;-88
2023/11/15 01:18:17;;;;;;;0.70;0.70;;;-2.10;99.90;;;;;;1884870;75;25700;-89
2023/11/15 01:21:08;;;;;;;0.60;0.60;;;-2.10;99.90;;;;;;1901387;75;25235;-88
2023/11/15 01:23:58;;;;;;;0.50;0.50;;;-2.10;99.90;;;;;;1880850;75;25808;-89
2023/11/15 01:26:47;;;;;;;0.63;0.63;;;-2.20;99.90;;;;;;1889546;75;25232;-89
2023/11/15 01:29:35;;;;;;;0.70;0.70;;;-2.30;99.90;;;;;;1878534;75;25254;-89
2023/11/15 01:32:24;;;;;;;0.50;0.50;;;-2.20;99.90;;;;;;1885387;75;25677;-88
2023/11/15 01:35:13;;;;;;;0.50;0.50;;;-2.20;99.90;;;;;;1877725;75;25245;-88
2023/11/15 01:38:01;;;;;;;0.40;0.40;;;-2.20;99.90;;;;;;1868279;75;25280;-88
2023/11/15 01:40:49;;;;;;;0.80;0.60;;;-2.20;99.90;;;;;;1894832;75;25201;-88
2023/11/15 01:43:39;;;;;;;0.50;0.50;;;-2.20;99.90;;;;;;1864352;75;25331;-88
2023/11/15 01:49:10;;;;;;;1.23;0.70;;;-2.30;99.90;;;;;;1945964;71;27020;-89
2023/11/15 01:51:59;;;;;;;0.57;0.57;;;-2.30;99.90;;;;;;1928716;74;25615;-89
2023/11/15 01:54:48;;;;;;;0.87;0.70;;;-2.30;99.90;;;;;;1917266;74;25683;-89
2023/11/15 01:57:38;;;;;;;0.60;0.60;;;-2.20;99.90;;;;;;1942113;72;26421;-89
2023/11/15 02:00:27;;;;;;;0.70;0.70;;;-2.20;99.90;;;;;;1921901;72;25218;-88
2023/11/15 02:03:15;;;;;;;0.67;0.67;;;-2.20;99.90;;;;;;1927828;72;25259;-88
2023/11/15 02:06:06;;;;;;;1.93;1.00;;;-2.20;99.90;;;;;;1926834;74;25213;-88
2023/11/15 02:08:54;;;;;;;0.60;0.60;;;-2.30;99.90;;;;;;1934765;72;25315;-90
2023/11/15 02:11:43;;;;;;;1.40;0.80;;;-2.30;99.90;;;;;;1935692;72;25209;-88
2023/11/15 02:14:31;;;;;;;0.70;0.70;;;-2.30;99.90;;;;;;1929056;72;25223;-88
2023/11/15 02:17:20;;;;;;;0.60;0.60;;;-2.30;99.90;;;;;;1919393;72;25318;-88
2023/11/15 02:20:11;;;;;;;0.80;0.80;;;-2.20;99.90;;;;;;1923138;74;25224;-88
2023/11/15 02:23:01;;;;;;;1.33;0.80;;;-2.20;99.90;;;;;;1873487;76;25763;-88
2023/11/15 02:25:51;;;;;;;0.67;0.67;;;-2.10;99.90;;;;;;1919882;74;25785;-88
2023/11/15 02:31:32;;;;;;;0.70;0.70;;;-2.10;99.90;;;;;;1940517;72;27030;-89
2023/11/15 02:34:21;;;;;;;0.60;0.60;;;-2.30;99.90;;;;;;1917711;73;25234;-89
2023/11/15 02:37:10;;;;;;;0.50;0.50;;;-2.20;99.90;;;;;;1916417;75;25188;-89
2023/11/15 02:40:01;;;;;;;0.60;0.60;;;-2.40;99.90;;;;;;1916771;73;25268;-88
2023/11/15 02:42:53;;;;;;;0.67;0.67;;;-2.40;99.90;;;;;;1917512;73;26816;-89
2023/11/15 02:45:38;;;;;;;0.97;0.73;;;-2.50;99.90;;;;;;1877330;76;25686;-88
2023/11/15 02:48:27;;;;;;;0.67;0.67;;;-2.60;99.90;;;;;;1909221;74;25161;-88
2023/11/15 02:51:16;;;;;;;0.73;0.73;;;-2.70;99.90;;;;;;1909607;75;25198;-88
2023/11/15 02:54:05;;;;;;;0.50;0.50;;;-2.70;99.90;;;;;;1899016;74;25293;-89
2023/11/15 02:56:54;;;;;;;0.93;0.70;;;-2.80;99.90;;;;;;1898284;74;25262;-88
2023/11/15 02:59:42;;;;;;;0.60;0.60;;;-2.80;99.90;;;;;;1909295;74;25270;-89
2023/11/15 03:02:30;;;;;;;0.60;0.60;;;-2.80;99.90;;;;;;1914963;73;25785;-88
2023/11/15 03:05:19;;;;;;;0.70;0.70;;;-2.80;99.90;;;;;;1895116;74;25331;-88
2023/11/15 03:08:08;;;;;;;0.80;0.70;;;-2.80;99.90;;;;;;1903856;74;25355;-88
2023/11/15 03:39:22;;;;;;;0.70;0.70;;;-2.90;99.90;;;;;;1917150;72;26785;-89
2023/11/15 03:42:12;;;;;;;2.00;0.77;;;-2.90;99.90;;;;;;1907210;75;25870;-89
2023/11/15 03:45:01;;;;;;;0.63;0.63;;;-2.90;99.90;;;;;;1902834;73;25208;-90
2023/11/15 03:47:49;;;;;;;1.47;0.63;;;-2.90;99.90;;;;;;1903001;74;25216;-89
2023/11/15 03:50:38;;;;;;;0.50;0.50;;;-2.80;99.90;;;;;;1894242;73;25317;-89
2023/11/15 03:53:27;;;;;;;1.00;0.73;;;-2.80;99.90;;;;;;1905684;73;25230;-89
2023/11/15 03:59:01;;;;;;;0.70;0.70;;;-2.90;99.90;;;;;;1942915;72;26981;-89
2023/11/15 04:04:33;;;;;;;1.70;0.73;;;-2.90;99.90;;;;;;1942365;72;27054;-89
2023/11/15 04:07:26;;;;;;;1.00;0.70;;;-3.00;99.90;;;;;;1882720;75;25784;-89
2023/11/15 04:10:15;;;;;;;1.03;0.73;;;-3.00;99.90;;;;;;1896969;74;25839;-89
2023/11/15 04:13:03;;;;;;;0.60;0.60;;;-3.00;99.90;;;;;;1885432;75;25239;-89
2023/11/15 04:15:51;;;;;;;0.80;0.67;;;-2.90;99.90;;;;;;1876960;75;25305;-89
2023/11/15 04:18:40;;;;;;;0.73;0.73;;;-2.90;99.90;;;;;;1889116;75;25221;-89
2023/11/15 04:21:29;;;;;;;0.60;0.60;;;-2.90;99.90;;;;;;1881812;75;25321;-89
2023/11/15 04:24:19;;;;;;;0.80;0.80;;;-2.90;99.90;;;;;;1883485;75;25235;-89
2023/11/15 04:27:07;;;;;;;0.80;0.80;;;-2.80;99.90;;;;;;1898917;75;25179;-89
2023/11/15 04:29:57;;;;;;;0.83;0.67;;;-2.80;99.90;;;;;;1899370;75;25210;-90
2023/11/15 04:32:47;;;;;;;0.67;0.67;;;-2.90;99.90;;;;;;1886629;75;25708;-89
2023/11/15 04:35:35;;;;;;;0.70;0.70;;;-2.90;99.90;;;;;;1881561;75;25267;-89
2023/11/15 04:42:14;;;;;;;0.80;0.70;;;-2.90;99.90;;;;;;1970834;71;27059;-90
2023/11/15 04:50:16;;;;;;;0.70;0.70;;;-2.90;99.90;;;;;;1991266;71;27087;-90
2023/11/15 05:06:48;;;;;;;0.80;0.80;;;-2.90;99.90;;;;;;1909931;73;26743;-90
2023/11/15 05:12:18;;;;;;;1.97;0.70;;;-2.80;99.90;;;;;;1948390;72;27636;-89
2023/11/15 05:15:09;;;;;;;0.97;0.73;;;-2.80;99.90;;;;;;1899923;74;25222;-89
2023/11/15 05:17:58;;;;;;;1.27;0.90;;;-2.90;99.90;;;;;;1914373;74;25726;-89
2023/11/15 05:54:11;;;;;;;0.57;0.57;;;-2.90;99.90;;;;;;1955963;72;27025;-88
2023/11/15 05:56:59;;;;;;;0.97;0.60;;;-3.00;99.90;;;;;;1981264;71;25196;-88
2023/11/15 05:59:48;;;;;;;0.67;0.67;;;-3.10;99.90;;;;;;1964047;71;25232;-89
2023/11/15 06:02:36;;;;;;;1.03;0.83;;;-3.20;99.90;;;;;;1976829;72;25698;-90
2023/11/15 06:05:25;;;;;;;0.93;0.67;;;-3.10;99.90;;;;;;1968930;72;25913;-90
2023/11/15 06:10:59;;;;;;;0.60;0.60;;;-3.10;99.90;;;;;;1958475;72;27211;-90
2023/11/15 06:13:47;;;;;;;1.07;0.83;;;-3.00;99.90;;;;;;1916989;73;25215;-89
2023/11/15 06:16:38;;;;;;;4.17;1.00;;;-3.10;99.90;;;;;;1927968;73;25907;-90
2023/11/15 06:19:26;;;;;;;0.80;0.80;;;-2.90;99.90;;;;;;1901667;75;25298;-90
2023/11/15 06:22:15;;;;;;;0.90;0.90;;;-3.00;99.90;;;;;;1916603;73;25249;-90
2023/11/15 06:25:04;;;;;;;0.80;0.80;;;-2.90;99.90;;;;;;1896992;73;25254;-90
2023/11/15 06:27:53;;;;;;;0.93;0.90;;;-2.80;99.90;;;;;;1936432;72;25772;-90
2023/11/15 06:30:45;;;;;;;0.80;0.80;;;-2.90;99.90;;;;;;1956595;72;25161;-89
2023/11/15 06:33:33;;;;;;;1.10;1.00;;;-3.00;99.90;;;;;;1945694;72;25279;-89
2023/11/15 06:36:22;;;;;;;6.90;1.07;;;-3.00;99.90;;;;;;1947117;72;25232;-90
2023/11/15 06:39:12;;;;;;;0.80;0.70;;;-3.00;99.90;;;;;;1935729;72;25662;-89
2023/11/15 06:42:00;;;;;;;4.30;1.00;;;-3.00;99.90;;;;;;1938619;72;25272;-90
2023/11/15 06:44:49;;;;;;;0.80;0.80;;;-3.10;99.90;;;;;;1924426;73;25252;-90
2023/11/15 06:50:21;;;;;;;0.77;0.77;;;-3.10;99.90;;;;;;2018775;69;26770;-90
2023/11/15 06:57:03;;;;;;;0.83;0.83;;;-3.10;99.90;;;;;;2014873;70;26347;-90
2023/11/15 06:59:51;;;;;;;0.80;0.80;;;-3.10;99.90;;;;;;1996890;70;25682;-90
2023/11/15 07:02:40;;;;;;;0.60;0.60;;;-3.20;99.90;;;;;;1986901;70;25250;-91
2023/11/15 07:05:31;;;;;;;1.10;1.00;;;-3.30;99.90;;;;;;1997407;70;25218;-89
2023/11/15 07:11:02;;;;;;;3.27;1.00;;;-3.20;99.90;;;;;;1987746;71;27120;-90
2023/11/15 07:13:51;;;;;;;1.17;1.00;;;-3.20;99.90;;;;;;1953637;71;25211;-90
2023/11/15 07:16:40;;;;;;;1.43;1.00;;;-3.20;99.90;;;;;;1964004;72;25668;-90
2023/11/15 07:19:29;;;;;;;7.17;1.00;;;-3.10;99.90;;;;;;1981365;72;25213;-90
2023/11/15 07:25:12;;;;;;;0.80;0.70;;;-3.20;99.90;;;;;;1951915;72;27033;-90
2023/11/15 07:28:02;;;;;;;1.13;0.80;;;-3.20;99.90;;;;;;1937607;73;25200;-90
2023/11/15 07:30:51;;;;;;;3.40;1.20;;;-3.20;99.90;;;;;;1892871;75;25709;-90
2023/11/15 07:33:40;;;;;;;1.83;1.30;;;-3.20;99.90;;;;;;1876344;75;25283;-89
2023/11/15 07:36:33;;;;;;;1.40;1.00;;;-3.10;99.90;;;;;;1847205;76;25301;-89
2023/11/15 07:39:21;;;;;;;5.13;1.33;;;-3.10;99.90;;;;;;1899028;75;25157;-89
2023/11/15 07:42:10;;;;;;;6.77;1.10;;;-3.00;99.90;;;;;;1894678;75;25322;-89
2023/11/15 07:48:19;;;;;;;0.77;0.73;;;-3.10;99.90;;;;;;2027522;70;27054;-90
2023/11/15 07:54:01;;;;;;;5.17;0.73;;;-3.30;99.90;;;;;;1945266;72;27432;-90
2023/11/15 07:56:50;;;;;;;2.57;0.80;;;-3.40;99.90;;;;;;1918820;73;25784;-90
2023/11/15 07:59:39;;;;;;;4.23;0.90;;;-3.30;99.90;;;;;;1930371;73;25616;-90
2023/11/15 08:06:11;;;;;;;1.07;0.80;;;-3.30;99.90;;;;;;1970580;71;27080;-90
2023/11/15 08:11:56;;;;;;;1.00;0.80;;;-3.30;99.90;;;;;;1946153;72;26956;-90
2023/11/15 08:28:50;;;;;;;0.70;0.70;;;-3.10;99.90;;;;;;1977559;71;26996;-90
2023/11/15 08:31:38;;;;;;;0.50;0.50;;;-3.30;99.90;;;;;;1969780;72;25681;-90
2023/11/15 08:34:26;;;;;;;0.83;0.83;;;-3.30;99.90;;;;;;2038487;69;25184;-90
2023/11/15 08:37:15;;;;;;;0.70;0.70;;;-3.20;99.90;;;;;;2044127;69;25162;-90
2023/11/15 08:40:04;;;;;;;0.80;0.80;;;-3.30;99.90;;;;;;2032589;69;25143;-89
2023/11/15 08:42:52;;;;;;;2.20;0.83;;;-3.30;99.90;;;;;;2023274;69;25326;-90
2023/11/15 08:59:24;;;;;;;1.83;0.97;;;-3.20;99.90;;;;;;1918041;74;26962;-88
2023/11/15 09:16:21;;;;;;;1.83;0.80;;;-3.20;99.90;;;;;;1968143;71;27445;-89
2023/11/15 09:21:55;;;;;;;1.20;1.00;;;-3.10;99.90;;;;;;1950336;72;27388;-90
2023/11/15 09:24:43;;;;;;;1.13;0.50;;;-3.10;99.90;;;;;;1909397;75;25226;-89
2023/11/15 09:30:25;;;;;;;0.50;0.50;;;-3.10;99.90;;;;;;1942816;72;26963;-90
2023/11/15 09:33:16;;;;;;;1.10;0.70;;;-3.10;99.90;;;;;;1947407;72;25146;-90
2023/11/15 09:38:57;;;;;;;0.63;0.60;;;-3.20;99.90;;;;;;1951193;72;27086;-90
2023/11/15 09:44:38;;;;;;;1.63;1.53;;;-3.30;99.90;;;;;;1918952;72;27177;-90
2023/11/15 09:47:28;;;;;;;4.30;1.00;;;-3.20;99.90;;;;;;1906283;73;25281;-90
2023/11/15 09:50:21;;;;;;;4.13;0.60;;;-3.20;99.90;;;;;;1912560;73;25284;-90
2023/11/15 09:53:08;;;;;;;2.87;0.63;;;-3.00;99.90;;;;;;1904885;74;25187;-90
2023/11/15 09:55:59;;;;;;;1.33;0.63;;;-3.10;99.90;;;;;;1930283;73;25340;-89
2023/11/15 09:58:49;;;;;;;7.30;0.83;;;-3.30;99.90;;;;;;1912781;73;25675;-90
2023/11/15 10:01:44;;;;;;;0.70;0.70;;;-3.20;99.90;;;;;;1906145;73;25222;-90
2023/11/15 10:04:34;;;;;;;1.10;1.00;;;-3.00;99.90;;;;;;1913578;73;25686;-90
2023/11/15 10:07:26;;;;;;;1.33;1.10;;;-2.90;99.90;;;;;;1914143;74;25212;-89
2023/11/15 10:10:20;;;;;;;1.03;0.70;;;-2.90;99.90;;;;;;1900326;73;25214;-89
2023/11/15 10:13:14;;;;;;;0.97;0.80;;;-2.90;99.90;;;;;;1923741;73;25787;-89
2023/11/15 10:16:08;;;;;;;1.80;1.10;;;-2.90;99.90;;;;;;1899823;73;25181;-89
2023/11/15 10:18:55;;;;;;;0.90;0.80;;;-2.90;99.90;;;;;;1904286;75;25803;-89
2023/11/15 10:21:52;;;;;;;0.50;0.50;;;-3.10;99.90;;;;;;1897496;73;25260;-89
2023/11/15 10:27:27;;;;;;;3.20;0.97;;;-3.00;99.90;;;;;;1946166;72;27463;-90
2023/11/15 10:33:11;;;;;;;0.70;0.70;;;-2.90;99.90;;;;;;1948247;72;27711;-89
2023/11/15 10:36:15;;;;;;;0.60;0.60;;;-2.90;99.90;;;;;;1928456;73;25316;-89
2023/11/15 10:41:52;;;;;;;1.00;0.90;;;-2.90;99.90;;;;;;1946072;72;27505;-90
2023/11/15 10:44:41;;;;;;;0.83;0.67;;;-3.00;99.90;;;;;;1907313;75;25176;-90
2023/11/15 10:47:32;;;;;;;0.60;0.60;;;-3.20;99.90;;;;;;1889830;75;25295;-90
2023/11/15 11:03:30;;;;;;;6.97;0.80;;;-3.10;99.90;;;;;;1870131;75;27057;-90
2023/11/15 11:10:39;;;;;;;3.67;1.47;;;-3.10;99.90;;;;;;1982088;71;26305;-90
2023/11/15 11:13:36;;;;;;;0.63;0.63;;;-3.10;99.90;;;;;;1990212;70;25546;-90
2023/11/15 11:16:36;;;;;;;2.93;0.80;;;-3.00;99.90;;;;;;2006152;71;25298;-90
2023/11/15 11:19:25;;;;;;;6.43;1.43;;;-3.00;99.90;;;;;;2000735;70;25249;-88
2023/11/15 11:22:17;;;;;;;0.77;0.77;;;-3.00;99.90;;;;;;2002925;71;25227;-90
2023/11/15 11:25:23;;;;;;;1.43;0.90;;;-2.90;99.90;;;;;;2007016;71;25134;-90
2023/11/15 11:28:12;;;;;;;1.17;1.00;;;-2.80;99.90;;;;;;2001253;71;25242;-89
2023/11/15 11:31:19;;;;;;;4.40;1.33;;;-2.60;99.90;;;;;;1996046;71;25193;-89
2023/11/15 11:34:09;;;;;;;0.90;0.80;;;-2.80;99.90;;;;;;2009960;71;25578;-89
2023/11/15 11:37:01;;;;;;;2.40;1.00;;;-2.90;99.90;;;;;;1992194;71;25164;-89
2023/11/15 11:39:57;;;;;;;0.73;0.73;;;-2.90;99.90;;;;;;2005448;71;25278;-89
2023/11/15 11:42:48;;;;;;;0.90;0.60;;;-2.90;99.90;;;;;;2000267;71;25312;-89
2023/11/15 11:45:37;;;;;;;0.97;0.90;;;-2.90;99.90;;;;;;1982566;71;25219;-90
2023/11/15 11:48:27;;;;;;;3.83;1.10;;;-2.80;99.90;;;;;;1982486;72;25265;-89
2023/11/15 11:54:09;;;;;;;1.57;1.03;;;-2.80;99.90;;;;;;1944196;72;27006;-90
2023/11/15 11:56:58;;;;;;;0.87;0.87;;;-2.80;99.90;;;;;;1932662;73;25210;-90
2023/11/15 12:02:47;;;;;;;5.77;1.13;;;-2.70;99.90;;;;;;1946309;72;27591;-90
2023/11/15 12:05:36;;;;;;;1.40;0.70;;;-2.70;99.90;;;;;;1946742;72;25692;-90
2023/11/15 12:08:26;;;;;;;6.50;2.70;;;-2.60;99.90;;;;;;1948568;72;25218;-90
2023/11/15 12:11:20;;;;;;;10.87;4.07;;;-2.70;99.90;;;;;;1943588;73;25272;-90
2023/11/15 12:14:15;;;;;;;16.07;5.70;;;-2.60;99.90;;;;;;1948113;73;25261;-89
2023/11/15 12:17:03;;;;;;;18.13;6.60;;;-2.50;99.90;;;;;;1931212;72;25777;-89
2023/11/15 12:19:52;;;;;;;21.67;5.73;;;-2.40;99.90;;;;;;1933539;73;25685;-90
2023/11/15 12:22:42;;;;;;;14.23;4.77;;;-2.50;99.90;;;;;;1944616;72;25281;-90
2023/11/15 12:25:31;;;;;;;11.53;4.03;;;-2.70;99.90;;;;;;1947943;72;25258;-90
2023/11/15 12:28:22;;;;;;;13.30;4.63;;;-2.70;99.90;;;;;;1932441;72;25599;-90
2023/11/15 12:31:13;;;;;;;6.20;2.97;;;-2.70;99.90;;;;;;1928101;73;25211;-90
2023/11/15 12:34:07;;;;;;;6.37;3.20;;;-2.60;99.90;;;;;;1925379;73;25271;-90
2023/11/15 12:36:56;;;;;;;4.50;1.50;;;-2.50;99.90;;;;;;1943661;73;25710;-90
2023/11/15 12:39:45;;;;;;;2.27;1.43;;;-2.50;99.90;;;;;;1946193;72;25276;-90
2023/11/15 12:42:36;;;;;;;3.07;1.20;;;-2.50;99.90;;;;;;1937950;72;25271;-90
2023/11/15 12:48:11;;;;;;;8.90;2.80;;;-2.50;99.90;;;;;;1966392;72;26849;-90
2023/11/15 12:51:05;;;;;;;7.60;1.73;;;-2.50;99.90;;;;;;1903360;72;25232;-90
2023/11/15 12:53:58;;;;;;;32.43;6.87;;;-2.50;99.90;;;;;;1897780;75;25223;-90
2023/11/15 12:56:47;;;;;;;0.70;0.70;;;-2.50;99.90;;;;;;1883499;75;25254;-89
2023/11/15 12:59:36;;;;;;;1.03;0.80;;;-2.50;99.90;;;;;;1895027;75;25305;-89
2023/11/15 13:02:27;;;;;;;1.30;1.00;;;-2.50;99.90;;;;;;1882904;75;25230;-89
2023/11/15 13:05:25;;;;;;;0.70;0.70;;;-2.50;99.90;;;;;;1899502;75;25169;-89
2023/11/15 13:08:14;;;;;;;2.40;1.10;;;-2.50;99.90;;;;;;1872188;75;25218;-89
2023/11/15 13:11:05;;;;;;;1.20;0.80;;;-2.60;99.90;;;;;;1899986;75;25272;-89
2023/11/15 13:13:55;;;;;;;0.70;0.70;;;-2.60;99.90;;;;;;1888295;75;25292;-90
2023/11/15 13:16:44;;;;;;;11.07;0.80;;;-2.60;99.90;;;;;;1892048;75;25257;-90
2023/11/15 13:19:34;;;;;;;2.87;0.80;;;-2.60;99.90;;;;;;1864759;75;25305;-92
2023/11/15 13:22:24;;;;;;;1.43;0.90;;;-2.50;99.90;;;;;;1875392;75;25327;-90
2023/11/15 13:25:26;;;;;;;2.40;1.40;;;-2.50;99.90;;;;;;1864278;76;25216;-90
2023/11/15 13:28:19;;;;;;;2.27;1.40;;;-2.50;99.90;;;;;;1866098;75;25339;-90
2023/11/15 13:48:47;;;;;;;5.40;1.60;;;-2.20;99.90;;;;;;1947661;72;26282;-91
2023/11/15 13:51:37;;;;;;;2.40;1.60;;;-2.30;99.90;;;;;;1923911;74;26022;-91
2023/11/15 14:22:41;;;;;;;3.03;1.23;;;-2.10;99.90;;;;;;1948113;72;26520;-91
2023/11/15 14:25:34;;;;;;;4.30;1.43;;;-2.10;99.90;;;;;;1930762;73;25228;-91
2023/11/15 14:28:27;;;;;;;2.10;1.30;;;-2.30;99.90;;;;;;1916897;73;25231;-91
2023/11/15 14:31:25;;;;;;;2.20;1.07;;;-2.40;99.90;;;;;;1928305;73;25298;-91
2023/11/15 14:34:31;;;;;;;2.00;1.20;;;-2.40;99.90;;;;;;1925759;73;25327;-92
2023/11/15 14:37:19;;;;;;;1.93;1.47;;;-2.50;99.90;;;;;;1930034;73;25254;-92
2023/11/15 14:40:11;;;;;;;5.23;1.70;;;-2.50;99.90;;;;;;1921688;73;25208;-93
2023/11/15 14:43:04;;;;;;;3.80;1.40;;;-2.50;99.90;;;;;;1915742;73;25318;-91
2023/11/15 14:45:55;;;;;;;4.47;1.80;;;-2.50;99.90;;;;;;1919437;73;25263;-91
2023/11/15 14:48:46;;;;;;;1.97;1.60;;;-2.50;99.90;;;;;;1924943;73;25311;-91
2023/11/15 14:54:40;;;;;;;3.27;1.50;;;-2.50;99.90;;;;;;1920421;72;27387;-91
2023/11/15 15:00:29;;;;;;;3.60;1.27;;;-2.60;99.90;;;;;;1913154;74;27121;-91
2023/11/15 15:03:21;;;;;;;9.50;1.20;;;-2.60;99.90;;;;;;1889566;75;25814;-91
2023/11/15 15:06:10;;;;;;;2.27;1.10;;;-2.60;99.90;;;;;;1887496;75;25557;-91
2023/11/15 15:09:00;;;;;;;0.90;0.90;;;-2.70;99.90;;;;;;1887448;75;25211;-91
2023/11/15 15:11:51;;;;;;;3.83;1.27;;;-2.70;99.90;;;;;;1900993;75;25230;-91
2023/11/15 15:14:40;;;;;;;4.13;1.00;;;-2.80;99.90;;;;;;1893477;74;25250;-90
2023/11/15 15:17:30;;;;;;;1.57;1.10;;;-2.80;99.90;;;;;;1891776;75;25267;-90
2023/11/15 15:20:19;;;;;;;6.90;1.23;;;-2.70;99.90;;;;;;1891444;74;25304;-90
2023/11/15 15:23:27;;;;;;;2.70;1.50;;;-2.50;99.90;;;;;;1896319;75;25245;-90
2023/11/15 15:26:20;;;;;;;6.50;1.43;;;-2.40;99.90;;;;;;1898041;74;25257;-90
2023/11/15 15:29:11;;;;;;;7.33;2.70;;;-2.40;99.90;;;;;;1893355;75;25772;-90
2023/11/15 15:32:03;;;;;;;6.53;2.70;;;-2.40;99.90;;;;;;1887433;75;25256;-91
2023/11/15 15:34:53;;;;;;;4.77;1.70;;;-2.50;99.90;;;;;;1884260;75;25249;-91
2023/11/15 15:37:44;;;;;;;8.00;1.80;;;-2.40;99.90;;;;;;1889225;75;25273;-91
2023/11/15 15:40:36;;;;;;;3.67;1.80;;;-2.40;99.90;;;;;;1895033;75;25191;-91
2023/11/15 15:43:37;;;;;;;3.23;1.80;;;-2.30;99.90;;;;;;1869361;75;25217;-91
2023/11/15 15:46:26;;;;;;;5.33;2.00;;;-2.30;99.90;;;;;;1876572;76;25723;-90
2023/11/15 15:49:15;;;;;;;9.63;2.20;;;-2.40;99.90;;;;;;1866963;75;25773;-91
2023/11/15 15:52:14;;;;;;;4.07;2.20;;;-2.50;99.90;;;;;;1861376;75;25193;-91
2023/11/15 16:51:40;;;;;;;7.33;2.47;;;-2.60;99.90;;;;;;1949248;72;27039;-92
2023/11/15 16:54:46;;;;;;;4.50;2.23;;;-2.70;99.90;;;;;;1918623;73;25167;-89
2023/11/15 16:57:36;;;;;;;4.67;2.33;;;-2.70;99.90;;;;;;1922484;73;25270;-90
2023/11/15 17:00:39;;;;;;;4.03;2.30;;;-2.80;99.90;;;;;;1924384;73;25730;-91
2023/11/15 17:03:29;;;;;;;9.63;2.47;;;-2.90;99.90;;;;;;1927153;73;25242;-90
2023/11/15 18:05:00;;;;;;;8.90;3.37;;;-3.40;99.90;;;;;;1915161;73;27018;-91
2023/11/15 18:08:40;;;;;;;24.77;10.17;;;-3.40;99.90;;;;;;1925423;73;25640;-89
2023/11/15 20:21:54;;;;;;;2.17;1.77;;;-2.60;99.90;;;;;;2049011;69;29527;-90
2023/11/15 20:25:34;;;;;;;14.13;2.00;;;-2.60;99.90;;;;;;2013752;70;25677;-90
2023/11/15 20:28:53;;;;;;;3.33;1.77;;;-2.40;99.90;;;;;;2010467;70;25534;-91
2023/11/15 20:32:28;;;;;;;2.03;1.50;;;-2.30;99.90;;;;;;2022273;70;25728;-91
2023/11/15 21:20:22;;;;;;;2.10;1.70;;;-2.00;99.90;;;;;;1920734;72;26331;-89
2023/11/15 21:23:39;;;;;;;3.43;1.77;;;-1.90;99.90;;;;;;1825715;77;25373;-92
2023/11/15 22:13:33;;;;;;;2.30;1.43;;;-1.90;99.90;;;;;;1913691;74;27650;-91
2023/11/15 22:30:16;;;;;;;6.60;1.70;;;-2.00;99.90;;;;;;2020317;71;28247;-90
2023/11/15 23:06:19;;;;;;;7.50;1.97;;;-1.40;99.90;;;;;;1900753;74;27805;-90
2023/11/15 23:22:31;;;;;;;3.03;2.10;;;-1.80;99.90;;;;;;1994002;71;26310;-91
2023/11/15 23:49:02;;;;;;;2.43;1.80;;;-1.90;99.90;;;;;;1912419;75;25224;-91
2023/11/15 23:51:51;;;;;;;2.93;1.70;;;-1.70;99.90;;;;;;1907253;75;25259;-91
2023/11/15 23:54:51;;;;;;;2.97;1.60;;;-1.70;99.90;;;;;;1907459;74;25303;-91
